Voronez, Russia

8:05 AM MSK on October 02, 2014 (GMT +0400)
Chertovitskoye | Change Station
CLOSE
Current Station
Airport
Location: Voronez Airport,
Elevation: 512 ft
Nearby Weather Stations

Elev 512 ft 51.82 °N, 39.23 °E | Updated 35 minutes ago

Mostly Cloudy
Mostly Cloudy
41 °F
Feels Like 34 °F
N
13
Wind Variable Wind from NNW
Gusts 22 mph

Today
High -- | Low -- °F
--% Chance of Precip.
Yesterday
High -- | Low -- °F
Precip. -- in
7:25 AM 6:59 PM
First Quarter, 54% visible
Pressure 30.33 in
Visibility 6.2 miles
Clouds Mostly Cloudy 4700 ft
Windchill 34 °F
Dew Point 21 °F
Humidity 45%
Rainfall 0.00 in
Snow Depth Not available.
UV 0 out of 12
Pollen Not available.
Air Quality Not available.
Flu Activity Not available.
METAR UUOO 020330Z 33006G10MPS 9999 BKN047 05/M06 Q1027 NOSIG RMK 30090070

More Conditions Fewer Conditions

Pressure 30.33 in
Visibility 6.2 miles
Clouds Mostly Cloudy 4700 ft
Windchill 34 °F
Dew Point 21 °F
Humidity 45%
Rainfall 0.00 in
Snow Depth Not available.
UV 0 out of 12
Pollen Not available.
Air Quality Not available.
Flu Activity Not available.
METAR UUOO 020330Z 33006G10MPS 9999 BKN047 05/M06 Q1027 NOSIG RMK 30090070

More Conditions Fewer Conditions

10-Day Weather Forecast

Almanac

Astronomy

Oct. 02, 2014 Rise Set
Actual Time 7:25 AM MSK 6:59 PM MSK
Civil Twilight 6:51 AM MSK 7:32 PM MSK
Nautical Twilight 6:12 AM MSK 8:11 PM MSK
Astronomical Twilight 5:32 AM MSK 8:51 PM MSK
Moon 3:25 PM MSK No Moon Set
Length of Visible Light 12h 40m
Length of Day
11h 34m
Tomorrow will be 3m 55s shorter.
First Quarter, 54% of the Moon is Illuminated
Today
First Quarter
Oct 8
Full
Oct 15
Last Quarter
Oct 23
New
Oct 30
First Quarter

Yesterday's Extremes

Country Highs Country Lows

Community

WunderPhotos

Upload Photos

1,758,179 photos uploaded!

Nearby

Snow Depth

Not available.

Earthquake Activity

City Distance Mag. Time & Date
No recent earthquake activity has been reported nearby.
Minimum magnitude displayed is 2.5.

Coastal Water Temperatures

Place Temperature
No Stations Reporting

Nearby Weather Stations